sensor_id;sensor_type;location;lat;lon;timestamp;P1;durP1;ratioP1;P2;durP2;ratioP2
76548;SDS011;65391;52.068;4.542;2023-06-24T00:00:20;3.6;;;1.8;;
76548;SDS011;65391;52.068;4.542;2023-06-24T00:02:44;2.2;;;1.7;;
76548;SDS011;65391;52.068;4.542;2023-06-24T00:05:09;2.2;;;1.7;;
76548;SDS011;65391;52.068;4.542;2023-06-24T00:07:34;2.2;;;1.7;;
76548;SDS011;65391;52.068;4.542;2023-06-24T00:09:59;2.2;;;1.7;;
76548;SDS011;65391;52.068;4.542;2023-06-24T00:12:24;2.2;;;1.7;;
76548;SDS011;65391;52.068;4.542;2023-06-24T00:14:49;6.5;;;2.2;;
76548;SDS011;65391;52.068;4.542;2023-06-24T00:17:14;6.5;;;2.2;;
76548;SDS011;65391;52.068;4.542;2023-06-24T00:19:39;6.5;;;2.2;;
76548;SDS011;65391;52.068;4.542;2023-06-24T00:22:05;6.5;;;2.2;;
76548;SDS011;65391;52.068;4.542;2023-06-24T00:24:29;3.4;;;1.7;;
76548;SDS011;65391;52.068;4.542;2023-06-24T00:26:54;3.4;;;1.7;;
76548;SDS011;65391;52.068;4.542;2023-06-24T00:29:19;3.4;;;1.7;;
76548;SDS011;65391;52.068;4.542;2023-06-24T00:31:44;3.4;;;1.7;;
76548;SDS011;65391;52.068;4.542;2023-06-24T00:34:09;3;;;1.7;;
76548;SDS011;65391;52.068;4.542;2023-06-24T00:36:34;3;;;1.7;;
76548;SDS011;65391;52.068;4.542;2023-06-24T00:39:00;3;;;1.7;;
76548;SDS011;65391;52.068;4.542;2023-06-24T00:41:24;3;;;1.7;;
76548;SDS011;65391;52.068;4.542;2023-06-24T00:43:49;4.8;;;2.1;;
76548;SDS011;65391;52.068;4.542;2023-06-24T00:46:14;4.8;;;2.1;;
76548;SDS011;65391;52.068;4.542;2023-06-24T00:48:39;4.8;;;2.1;;
76548;SDS011;65391;52.068;4.542;2023-06-24T00:51:04;4.8;;;2.1;;
76548;SDS011;65391;52.068;4.542;2023-06-24T00:53:29;8.3;;;2;;
76548;SDS011;65391;52.068;4.542;2023-06-24T00:55:55;8.3;;;2;;
76548;SDS011;65391;52.068;4.542;2023-06-24T00:58:19;8.3;;;2;;
76548;SDS011;65391;52.068;4.542;2023-06-24T01:00:44;8.3;;;2;;
76548;SDS011;65391;52.068;4.542;2023-06-24T01:03:10;3.5;;;2.3;;
76548;SDS011;65391;52.068;4.542;2023-06-24T01:05:34;3.5;;;2.3;;
76548;SDS011;65391;52.068;4.542;2023-06-24T01:07:59;3.5;;;2.3;;
76548;SDS011;65391;52.068;4.542;2023-06-24T01:10:24;3.5;;;2.3;;
76548;SDS011;65391;52.068;4.542;2023-06-24T01:12:49;4.6;;;3.1;;
76548;SDS011;65391;52.068;4.542;2023-06-24T01:15:15;4.6;;;3.1;;
76548;SDS011;65391;52.068;4.542;2023-06-24T01:17:43;4.6;;;3.1;;
76548;SDS011;65391;52.068;4.542;2023-06-24T01:20:06;4.6;;;3.1;;
76548;SDS011;65391;52.068;4.542;2023-06-24T01:22:37;4.6;;;3.1;;
76548;SDS011;65391;52.068;4.542;2023-06-24T01:25:02;5.7;;;2.7;;
76548;SDS011;65391;52.068;4.542;2023-06-24T01:27:29;5.7;;;2.7;;
76548;SDS011;65391;52.068;4.542;2023-06-24T01:29:51;5.7;;;2.7;;
76548;SDS011;65391;52.068;4.542;2023-06-24T01:32:10;5.7;;;2.7;;
76548;SDS011;65391;52.068;4.542;2023-06-24T01:34:36;3.4;;;2.1;;
76548;SDS011;65391;52.068;4.542;2023-06-24T01:37:04;3.4;;;2.1;;
76548;SDS011;65391;52.068;4.542;2023-06-24T01:39:24;3.4;;;2.1;;
76548;SDS011;65391;52.068;4.542;2023-06-24T01:41:53;3.4;;;2.1;;
76548;SDS011;65391;52.068;4.542;2023-06-24T01:44:15;4;;;2.4;;
76548;SDS011;65391;52.068;4.542;2023-06-24T01:46:39;4;;;2.4;;
76548;SDS011;65391;52.068;4.542;2023-06-24T01:49:04;4;;;2.4;;
76548;SDS011;65391;52.068;4.542;2023-06-24T01:51:30;4;;;2.4;;
76548;SDS011;65391;52.068;4.542;2023-06-24T01:53:59;7;;;2.3;;
76548;SDS011;65391;52.068;4.542;2023-06-24T01:56:20;7;;;2.3;;
76548;SDS011;65391;52.068;4.542;2023-06-24T01:58:44;7;;;2.3;;
76548;SDS011;65391;52.068;4.542;2023-06-24T02:01:09;7;;;2.3;;
76548;SDS011;65391;52.068;4.542;2023-06-24T02:03:34;7.4;;;2.4;;
76548;SDS011;65391;52.068;4.542;2023-06-24T02:05:59;7.4;;;2.4;;
76548;SDS011;65391;52.068;4.542;2023-06-24T02:08:25;7.4;;;2.4;;
76548;SDS011;65391;52.068;4.542;2023-06-24T02:10:49;7.4;;;2.4;;
76548;SDS011;65391;52.068;4.542;2023-06-24T02:13:14;4.1;;;2.5;;
76548;SDS011;65391;52.068;4.542;2023-06-24T02:15:39;4.1;;;2.5;;
76548;SDS011;65391;52.068;4.542;2023-06-24T02:18:04;4.1;;;2.5;;
76548;SDS011;65391;52.068;4.542;2023-06-24T02:20:30;4.1;;;2.5;;
76548;SDS011;65391;52.068;4.542;2023-06-24T02:22:55;4.1;;;2.5;;
76548;SDS011;65391;52.068;4.542;2023-06-24T02:25:19;4.4;;;2.5;;
76548;SDS011;65391;52.068;4.542;2023-06-24T02:27:44;4.4;;;2.5;;
76548;SDS011;65391;52.068;4.542;2023-06-24T02:30:10;4.4;;;2.5;;
76548;SDS011;65391;52.068;4.542;2023-06-24T02:32:34;4.4;;;2.5;;
76548;SDS011;65391;52.068;4.542;2023-06-24T02:34:59;5.1;;;2.7;;
76548;SDS011;65391;52.068;4.542;2023-06-24T02:37:24;5.1;;;2.7;;
76548;SDS011;65391;52.068;4.542;2023-06-24T02:39:49;5.1;;;2.7;;
76548;SDS011;65391;52.068;4.542;2023-06-24T02:42:15;5.1;;;2.7;;
76548;SDS011;65391;52.068;4.542;2023-06-24T02:44:40;7.3;;;2.6;;
76548;SDS011;65391;52.068;4.542;2023-06-24T02:47:05;7.3;;;2.6;;
76548;SDS011;65391;52.068;4.542;2023-06-24T02:49:29;7.3;;;2.6;;
76548;SDS011;65391;52.068;4.542;2023-06-24T02:51:54;7.3;;;2.6;;
76548;SDS011;65391;52.068;4.542;2023-06-24T02:54:19;3.8;;;3.1;;
76548;SDS011;65391;52.068;4.542;2023-06-24T02:56:45;3.8;;;3.1;;
76548;SDS011;65391;52.068;4.542;2023-06-24T02:59:10;3.8;;;3.1;;
76548;SDS011;65391;52.068;4.542;2023-06-24T03:01:35;3.8;;;3.1;;
76548;SDS011;65391;52.068;4.542;2023-06-24T03:03:59;7.4;;;3.7;;
76548;SDS011;65391;52.068;4.542;2023-06-24T03:06:25;7.4;;;3.7;;
76548;SDS011;65391;52.068;4.542;2023-06-24T03:08:50;7.4;;;3.7;;
76548;SDS011;65391;52.068;4.542;2023-06-24T03:11:15;7.4;;;3.7;;
76548;SDS011;65391;52.068;4.542;2023-06-24T03:13:40;7.7;;;3.4;;
76548;SDS011;65391;52.068;4.542;2023-06-24T03:16:05;7.7;;;3.4;;
76548;SDS011;65391;52.068;4.542;2023-06-24T03:18:30;7.7;;;3.4;;
76548;SDS011;65391;52.068;4.542;2023-06-24T03:20:55;7.7;;;3.4;;
76548;SDS011;65391;52.068;4.542;2023-06-24T03:23:20;6.2;;;3.2;;
76548;SDS011;65391;52.068;4.542;2023-06-24T03:25:45;6.2;;;3.2;;
76548;SDS011;65391;52.068;4.542;2023-06-24T03:28:10;6.2;;;3.2;;
76548;SDS011;65391;52.068;4.542;2023-06-24T03:30:35;6.2;;;3.2;;
76548;SDS011;65391;52.068;4.542;2023-06-24T03:33:00;6.2;;;3.2;;
76548;SDS011;65391;52.068;4.542;2023-06-24T03:35:25;6.5;;;3;;
76548;SDS011;65391;52.068;4.542;2023-06-24T03:37:50;6.5;;;3;;
76548;SDS011;65391;52.068;4.542;2023-06-24T03:40:15;6.5;;;3;;
76548;SDS011;65391;52.068;4.542;2023-06-24T03:42:40;6.5;;;3;;
76548;SDS011;65391;52.068;4.542;2023-06-24T03:45:05;7.6;;;3.3;;
76548;SDS011;65391;52.068;4.542;2023-06-24T03:47:30;7.6;;;3.3;;
76548;SDS011;65391;52.068;4.542;2023-06-24T03:49:55;7.6;;;3.3;;
76548;SDS011;65391;52.068;4.542;2023-06-24T03:52:20;7.6;;;3.3;;
76548;SDS011;65391;52.068;4.542;2023-06-24T03:54:45;6.5;;;3.3;;
76548;SDS011;65391;52.068;4.542;2023-06-24T03:57:10;6.5;;;3.3;;
76548;SDS011;65391;52.068;4.542;2023-06-24T03:59:35;6.5;;;3.3;;
76548;SDS011;65391;52.068;4.542;2023-06-24T04:02:00;6.5;;;3.3;;
76548;SDS011;65391;52.068;4.542;2023-06-24T04:04:25;6.4;;;3.9;;
76548;SDS011;65391;52.068;4.542;2023-06-24T04:06:50;6.4;;;3.9;;
76548;SDS011;65391;52.068;4.542;2023-06-24T04:09:15;6.4;;;3.9;;
76548;SDS011;65391;52.068;4.542;2023-06-24T04:11:40;6.4;;;3.9;;
76548;SDS011;65391;52.068;4.542;2023-06-24T04:14:05;8.5;;;3.4;;
76548;SDS011;65391;52.068;4.542;2023-06-24T04:16:30;8.5;;;3.4;;
76548;SDS011;65391;52.068;4.542;2023-06-24T04:18:55;8.5;;;3.4;;
76548;SDS011;65391;52.068;4.542;2023-06-24T04:21:20;8.5;;;3.4;;
76548;SDS011;65391;52.068;4.542;2023-06-24T04:23:45;6;;;3.5;;
76548;SDS011;65391;52.068;4.542;2023-06-24T04:26:10;6;;;3.5;;
76548;SDS011;65391;52.068;4.542;2023-06-24T04:28:35;6;;;3.5;;
76548;SDS011;65391;52.068;4.542;2023-06-24T04:31:00;6;;;3.5;;
76548;SDS011;65391;52.068;4.542;2023-06-24T04:33:25;7.3;;;3.6;;
76548;SDS011;65391;52.068;4.542;2023-06-24T04:35:50;7.3;;;3.6;;
76548;SDS011;65391;52.068;4.542;2023-06-24T04:38:15;7.3;;;3.6;;
76548;SDS011;65391;52.068;4.542;2023-06-24T04:40:40;7.3;;;3.6;;
76548;SDS011;65391;52.068;4.542;2023-06-24T04:43:05;7.3;;;3.6;;
76548;SDS011;65391;52.068;4.542;2023-06-24T04:45:30;6.5;;;3.7;;
76548;SDS011;65391;52.068;4.542;2023-06-24T04:47:55;6.5;;;3.7;;
76548;SDS011;65391;52.068;4.542;2023-06-24T04:50:20;6.5;;;3.7;;
76548;SDS011;65391;52.068;4.542;2023-06-24T04:52:45;6.5;;;3.7;;
76548;SDS011;65391;52.068;4.542;2023-06-24T04:55:10;5.9;;;4;;
76548;SDS011;65391;52.068;4.542;2023-06-24T04:57:35;5.9;;;4;;
76548;SDS011;65391;52.068;4.542;2023-06-24T05:00:00;5.9;;;4;;
76548;SDS011;65391;52.068;4.542;2023-06-24T05:02:25;5.9;;;4;;
76548;SDS011;65391;52.068;4.542;2023-06-24T05:04:51;10.9;;;4.5;;
76548;SDS011;65391;52.068;4.542;2023-06-24T05:07:15;10.9;;;4.5;;
76548;SDS011;65391;52.068;4.542;2023-06-24T05:09:40;10.9;;;4.5;;
76548;SDS011;65391;52.068;4.542;2023-06-24T05:12:05;10.9;;;4.5;;
76548;SDS011;65391;52.068;4.542;2023-06-24T05:14:30;7.3;;;4.4;;
76548;SDS011;65391;52.068;4.542;2023-06-24T05:16:55;7.3;;;4.4;;
76548;SDS011;65391;52.068;4.542;2023-06-24T05:19:20;7.3;;;4.4;;
76548;SDS011;65391;52.068;4.542;2023-06-24T05:21:45;7.3;;;4.4;;
76548;SDS011;65391;52.068;4.542;2023-06-24T05:24:10;9.7;;;4.4;;
76548;SDS011;65391;52.068;4.542;2023-06-24T05:26:35;9.7;;;4.4;;
76548;SDS011;65391;52.068;4.542;2023-06-24T05:29:00;9.7;;;4.4;;
76548;SDS011;65391;52.068;4.542;2023-06-24T05:31:25;9.7;;;4.4;;
76548;SDS011;65391;52.068;4.542;2023-06-24T05:33:50;8.6;;;4.9;;
76548;SDS011;65391;52.068;4.542;2023-06-24T05:36:15;8.6;;;4.9;;
76548;SDS011;65391;52.068;4.542;2023-06-24T05:38:40;8.6;;;4.9;;
76548;SDS011;65391;52.068;4.542;2023-06-24T05:41:05;8.6;;;4.9;;
76548;SDS011;65391;52.068;4.542;2023-06-24T05:43:30;10.1;;;5.4;;
76548;SDS011;65391;52.068;4.542;2023-06-24T05:45:55;10.1;;;5.4;;
76548;SDS011;65391;52.068;4.542;2023-06-24T05:48:20;10.1;;;5.4;;
76548;SDS011;65391;52.068;4.542;2023-06-24T05:50:45;10.1;;;5.4;;
76548;SDS011;65391;52.068;4.542;2023-06-24T05:53:10;10.1;;;5.4;;
76548;SDS011;65391;52.068;4.542;2023-06-24T05:55:35;9.6;;;4.9;;
76548;SDS011;65391;52.068;4.542;2023-06-24T05:58:00;9.6;;;4.9;;
76548;SDS011;65391;52.068;4.542;2023-06-24T06:00:25;9.6;;;4.9;;
76548;SDS011;65391;52.068;4.542;2023-06-24T06:02:50;9.6;;;4.9;;
76548;SDS011;65391;52.068;4.542;2023-06-24T06:05:15;9.4;;;5.1;;
76548;SDS011;65391;52.068;4.542;2023-06-24T06:07:40;9.4;;;5.1;;
76548;SDS011;65391;52.068;4.542;2023-06-24T06:10:06;9.4;;;5.1;;
76548;SDS011;65391;52.068;4.542;2023-06-24T06:12:30;9.4;;;5.1;;
76548;SDS011;65391;52.068;4.542;2023-06-24T06:14:55;10.1;;;6;;
76548;SDS011;65391;52.068;4.542;2023-06-24T06:17:20;10.1;;;6;;
76548;SDS011;65391;52.068;4.542;2023-06-24T06:19:45;10.1;;;6;;
76548;SDS011;65391;52.068;4.542;2023-06-24T06:22:10;10.1;;;6;;
76548;SDS011;65391;52.068;4.542;2023-06-24T06:24:35;9.5;;;5.1;;
76548;SDS011;65391;52.068;4.542;2023-06-24T06:27:00;9.5;;;5.1;;
76548;SDS011;65391;52.068;4.542;2023-06-24T06:29:25;9.5;;;5.1;;
76548;SDS011;65391;52.068;4.542;2023-06-24T06:31:51;9.5;;;5.1;;
76548;SDS011;65391;52.068;4.542;2023-06-24T06:34:15;9.3;;;5.6;;
76548;SDS011;65391;52.068;4.542;2023-06-24T06:36:40;9.3;;;5.6;;
76548;SDS011;65391;52.068;4.542;2023-06-24T06:39:05;9.3;;;5.6;;
76548;SDS011;65391;52.068;4.542;2023-06-24T06:41:30;9.3;;;5.6;;
76548;SDS011;65391;52.068;4.542;2023-06-24T06:43:55;12.7;;;5.4;;
76548;SDS011;65391;52.068;4.542;2023-06-24T06:46:20;12.7;;;5.4;;
76548;SDS011;65391;52.068;4.542;2023-06-24T06:48:45;12.7;;;5.4;;
76548;SDS011;65391;52.068;4.542;2023-06-24T06:51:10;12.7;;;5.4;;
76548;SDS011;65391;52.068;4.542;2023-06-24T06:53:35;12.8;;;5.8;;
76548;SDS011;65391;52.068;4.542;2023-06-24T06:56:00;12.8;;;5.8;;
76548;SDS011;65391;52.068;4.542;2023-06-24T06:58:25;12.8;;;5.8;;
76548;SDS011;65391;52.068;4.542;2023-06-24T07:00:50;12.8;;;5.8;;
76548;SDS011;65391;52.068;4.542;2023-06-24T07:03:15;12.8;;;5.8;;
76548;SDS011;65391;52.068;4.542;2023-06-24T07:05:40;9;;;5.8;;
76548;SDS011;65391;52.068;4.542;2023-06-24T07:08:05;9;;;5.8;;
76548;SDS011;65391;52.068;4.542;2023-06-24T07:10:30;9;;;5.8;;
76548;SDS011;65391;52.068;4.542;2023-06-24T07:12:55;9;;;5.8;;
76548;SDS011;65391;52.068;4.542;2023-06-24T07:15:20;8.5;;;4.9;;
76548;SDS011;65391;52.068;4.542;2023-06-24T07:17:45;8.5;;;4.9;;
76548;SDS011;65391;52.068;4.542;2023-06-24T07:20:10;8.5;;;4.9;;
76548;SDS011;65391;52.068;4.542;2023-06-24T07:22:35;8.5;;;4.9;;
76548;SDS011;65391;52.068;4.542;2023-06-24T07:25:00;11.8;;;5.1;;
76548;SDS011;65391;52.068;4.542;2023-06-24T07:27:25;11.8;;;5.1;;
76548;SDS011;65391;52.068;4.542;2023-06-24T07:29:50;11.8;;;5.1;;
76548;SDS011;65391;52.068;4.542;2023-06-24T07:32:15;11.8;;;5.1;;
76548;SDS011;65391;52.068;4.542;2023-06-24T07:34:40;13.9;;;6.2;;
76548;SDS011;65391;52.068;4.542;2023-06-24T07:37:05;13.9;;;6.2;;
76548;SDS011;65391;52.068;4.542;2023-06-24T07:39:30;13.9;;;6.2;;
76548;SDS011;65391;52.068;4.542;2023-06-24T07:41:55;13.9;;;6.2;;
76548;SDS011;65391;52.068;4.542;2023-06-24T07:44:20;9.4;;;4.7;;
76548;SDS011;65391;52.068;4.542;2023-06-24T07:46:45;9.4;;;4.7;;
76548;SDS011;65391;52.068;4.542;2023-06-24T07:49:10;9.4;;;4.7;;
76548;SDS011;65391;52.068;4.542;2023-06-24T07:51:35;9.4;;;4.7;;
76548;SDS011;65391;52.068;4.542;2023-06-24T07:54:00;7.6;;;5.6;;
76548;SDS011;65391;52.068;4.542;2023-06-24T07:56:25;7.6;;;5.6;;
76548;SDS011;65391;52.068;4.542;2023-06-24T07:58:50;7.6;;;5.6;;
76548;SDS011;65391;52.068;4.542;2023-06-24T08:01:16;7.6;;;5.6;;
76548;SDS011;65391;52.068;4.542;2023-06-24T08:03:40;11.7;;;5.7;;
76548;SDS011;65391;52.068;4.542;2023-06-24T08:06:05;11.7;;;5.7;;
76548;SDS011;65391;52.068;4.542;2023-06-24T08:08:30;11.7;;;5.7;;
76548;SDS011;65391;52.068;4.542;2023-06-24T08:10:55;11.7;;;5.7;;
76548;SDS011;65391;52.068;4.542;2023-06-24T08:13:20;11.7;;;5.7;;
76548;SDS011;65391;52.068;4.542;2023-06-24T08:15:45;9;;;5.5;;
76548;SDS011;65391;52.068;4.542;2023-06-24T08:18:10;9;;;5.5;;
76548;SDS011;65391;52.068;4.542;2023-06-24T08:20:35;9;;;5.5;;
76548;SDS011;65391;52.068;4.542;2023-06-24T08:23:01;9;;;5.5;;
76548;SDS011;65391;52.068;4.542;2023-06-24T08:25:25;9.6;;;6;;
76548;SDS011;65391;52.068;4.542;2023-06-24T08:27:50;9.6;;;6;;
76548;SDS011;65391;52.068;4.542;2023-06-24T08:30:15;9.6;;;6;;
76548;SDS011;65391;52.068;4.542;2023-06-24T08:32:40;9.6;;;6;;
76548;SDS011;65391;52.068;4.542;2023-06-24T08:35:06;10.5;;;5.7;;
76548;SDS011;65391;52.068;4.542;2023-06-24T08:37:30;10.5;;;5.7;;
76548;SDS011;65391;52.068;4.542;2023-06-24T08:39:55;10.5;;;5.7;;
76548;SDS011;65391;52.068;4.542;2023-06-24T08:42:20;10.5;;;5.7;;
76548;SDS011;65391;52.068;4.542;2023-06-24T08:44:45;8.4;;;5.6;;
76548;SDS011;65391;52.068;4.542;2023-06-24T08:47:11;8.4;;;5.6;;
76548;SDS011;65391;52.068;4.542;2023-06-24T08:49:38;8.4;;;5.6;;
76548;SDS011;65391;52.068;4.542;2023-06-24T08:52:03;8.4;;;5.6;;
76548;SDS011;65391;52.068;4.542;2023-06-24T08:54:25;13.7;;;5.7;;
76548;SDS011;65391;52.068;4.542;2023-06-24T08:56:50;13.7;;;5.7;;
76548;SDS011;65391;52.068;4.542;2023-06-24T08:59:15;13.7;;;5.7;;
76548;SDS011;65391;52.068;4.542;2023-06-24T09:01:40;13.7;;;5.7;;
76548;SDS011;65391;52.068;4.542;2023-06-24T09:04:06;13.1;;;5.7;;
76548;SDS011;65391;52.068;4.542;2023-06-24T09:06:30;13.1;;;5.7;;
76548;SDS011;65391;52.068;4.542;2023-06-24T09:08:56;13.1;;;5.7;;
76548;SDS011;65391;52.068;4.542;2023-06-24T09:11:22;13.1;;;5.7;;
76548;SDS011;65391;52.068;4.542;2023-06-24T09:13:46;7.5;;;4.8;;
76548;SDS011;65391;52.068;4.542;2023-06-24T09:16:11;7.5;;;4.8;;
76548;SDS011;65391;52.068;4.542;2023-06-24T09:18:35;7.5;;;4.8;;
76548;SDS011;65391;52.068;4.542;2023-06-24T09:21:01;7.5;;;4.8;;
76548;SDS011;65391;52.068;4.542;2023-06-24T09:23:26;7.5;;;4.8;;
76548;SDS011;65391;52.068;4.542;2023-06-24T09:25:55;7.9;;;4.8;;
76548;SDS011;65391;52.068;4.542;2023-06-24T09:28:15;7.9;;;4.8;;
76548;SDS011;65391;52.068;4.542;2023-06-24T09:30:40;7.9;;;4.8;;
76548;SDS011;65391;52.068;4.542;2023-06-24T09:33:05;7.9;;;4.8;;
76548;SDS011;65391;52.068;4.542;2023-06-24T09:35:34;8;;;5.4;;
76548;SDS011;65391;52.068;4.542;2023-06-24T09:37:56;8;;;5.4;;
76548;SDS011;65391;52.068;4.542;2023-06-24T09:40:21;8;;;5.4;;
76548;SDS011;65391;52.068;4.542;2023-06-24T09:42:49;8;;;5.4;;
76548;SDS011;65391;52.068;4.542;2023-06-24T09:45:11;10.5;;;6;;
76548;SDS011;65391;52.068;4.542;2023-06-24T09:47:35;10.5;;;6;;
76548;SDS011;65391;52.068;4.542;2023-06-24T09:50:00;10.5;;;6;;
76548;SDS011;65391;52.068;4.542;2023-06-24T09:52:25;10.5;;;6;;
76548;SDS011;65391;52.068;4.542;2023-06-24T09:54:51;9.7;;;4.5;;
76548;SDS011;65391;52.068;4.542;2023-06-24T09:57:15;9.7;;;4.5;;
76548;SDS011;65391;52.068;4.542;2023-06-24T09:59:41;9.7;;;4.5;;
76548;SDS011;65391;52.068;4.542;2023-06-24T10:02:05;9.7;;;4.5;;
76548;SDS011;65391;52.068;4.542;2023-06-24T10:04:31;6.8;;;4.8;;
76548;SDS011;65391;52.068;4.542;2023-06-24T10:06:55;6.8;;;4.8;;
76548;SDS011;65391;52.068;4.542;2023-06-24T10:09:20;6.8;;;4.8;;
76548;SDS011;65391;52.068;4.542;2023-06-24T10:11:46;6.8;;;4.8;;
76548;SDS011;65391;52.068;4.542;2023-06-24T10:14:11;7.9;;;5.2;;
76548;SDS011;65391;52.068;4.542;2023-06-24T10:16:36;7.9;;;5.2;;
76548;SDS011;65391;52.068;4.542;2023-06-24T10:19:01;7.9;;;5.2;;
76548;SDS011;65391;52.068;4.542;2023-06-24T10:21:44;7.9;;;5.2;;
76548;SDS011;65391;52.068;4.542;2023-06-24T10:23:51;7.7;;;5.5;;
76548;SDS011;65391;52.068;4.542;2023-06-24T10:26:22;7.7;;;5.5;;
76548;SDS011;65391;52.068;4.542;2023-06-24T10:29:08;7.7;;;5.5;;
76548;SDS011;65391;52.068;4.542;2023-06-24T10:31:05;7.7;;;5.5;;
76548;SDS011;65391;52.068;4.542;2023-06-24T10:33:31;7.7;;;5.5;;
76548;SDS011;65391;52.068;4.542;2023-06-24T10:35:56;9.1;;;4.6;;
76548;SDS011;65391;52.068;4.542;2023-06-24T10:38:20;9.1;;;4.6;;
76548;SDS011;65391;52.068;4.542;2023-06-24T10:40:45;9.1;;;4.6;;
76548;SDS011;65391;52.068;4.542;2023-06-24T10:43:27;9.1;;;4.6;;
76548;SDS011;65391;52.068;4.542;2023-06-24T10:45:35;6.9;;;4.1;;
76548;SDS011;65391;52.068;4.542;2023-06-24T10:48:01;6.9;;;4.1;;
76548;SDS011;65391;52.068;4.542;2023-06-24T10:50:26;6.9;;;4.1;;
76548;SDS011;65391;52.068;4.542;2023-06-24T10:52:51;6.9;;;4.1;;
76548;SDS011;65391;52.068;4.542;2023-06-24T10:55:16;7.3;;;3.8;;
76548;SDS011;65391;52.068;4.542;2023-06-24T10:57:41;7.3;;;3.8;;
76548;SDS011;65391;52.068;4.542;2023-06-24T11:00:07;7.3;;;3.8;;
76548;SDS011;65391;52.068;4.542;2023-06-24T11:02:31;7.3;;;3.8;;
76548;SDS011;65391;52.068;4.542;2023-06-24T11:04:56;9.8;;;5.2;;
76548;SDS011;65391;52.068;4.542;2023-06-24T11:07:22;9.8;;;5.2;;
76548;SDS011;65391;52.068;4.542;2023-06-24T11:09:48;9.8;;;5.2;;
76548;SDS011;65391;52.068;4.542;2023-06-24T11:12:11;9.8;;;5.2;;
76548;SDS011;65391;52.068;4.542;2023-06-24T11:14:36;7.5;;;3.9;;
76548;SDS011;65391;52.068;4.542;2023-06-24T11:17:01;7.5;;;3.9;;
76548;SDS011;65391;52.068;4.542;2023-06-24T11:19:26;7.5;;;3.9;;
76548;SDS011;65391;52.068;4.542;2023-06-24T11:21:51;7.5;;;3.9;;
76548;SDS011;65391;52.068;4.542;2023-06-24T11:24:16;9.9;;;5;;
76548;SDS011;65391;52.068;4.542;2023-06-24T11:26:41;9.9;;;5;;
76548;SDS011;65391;52.068;4.542;2023-06-24T11:29:09;9.9;;;5;;
76548;SDS011;65391;52.068;4.542;2023-06-24T11:31:31;9.9;;;5;;
76548;SDS011;65391;52.068;4.542;2023-06-24T11:33:56;10.6;;;4.7;;
76548;SDS011;65391;52.068;4.542;2023-06-24T11:36:21;10.6;;;4.7;;
76548;SDS011;65391;52.068;4.542;2023-06-24T11:38:46;10.6;;;4.7;;
76548;SDS011;65391;52.068;4.542;2023-06-24T11:41:11;10.6;;;4.7;;
76548;SDS011;65391;52.068;4.542;2023-06-24T11:43:36;10.6;;;4.7;;
76548;SDS011;65391;52.068;4.542;2023-06-24T11:46:01;7.1;;;4.6;;
76548;SDS011;65391;52.068;4.542;2023-06-24T11:48:27;7.1;;;4.6;;
76548;SDS011;65391;52.068;4.542;2023-06-24T11:50:53;7.1;;;4.6;;
76548;SDS011;65391;52.068;4.542;2023-06-24T11:53:16;7.1;;;4.6;;
76548;SDS011;65391;52.068;4.542;2023-06-24T11:55:41;9.1;;;4;;
76548;SDS011;65391;52.068;4.542;2023-06-24T11:58:06;9.1;;;4;;
76548;SDS011;65391;52.068;4.542;2023-06-24T12:00:32;9.1;;;4;;
76548;SDS011;65391;52.068;4.542;2023-06-24T12:02:57;9.1;;;4;;
76548;SDS011;65391;52.068;4.542;2023-06-24T12:05:23;4.8;;;4;;
76548;SDS011;65391;52.068;4.542;2023-06-24T12:07:46;4.8;;;4;;
76548;SDS011;65391;52.068;4.542;2023-06-24T12:10:11;4.8;;;4;;
76548;SDS011;65391;52.068;4.542;2023-06-24T12:12:36;4.8;;;4;;
76548;SDS011;65391;52.068;4.542;2023-06-24T12:15:01;6.2;;;3.7;;
76548;SDS011;65391;52.068;4.542;2023-06-24T12:17:26;6.2;;;3.7;;
76548;SDS011;65391;52.068;4.542;2023-06-24T12:19:51;6.2;;;3.7;;
76548;SDS011;65391;52.068;4.542;2023-06-24T12:22:16;6.2;;;3.7;;
76548;SDS011;65391;52.068;4.542;2023-06-24T12:24:41;8.7;;;4.3;;
76548;SDS011;65391;52.068;4.542;2023-06-24T12:27:06;8.7;;;4.3;;
76548;SDS011;65391;52.068;4.542;2023-06-24T12:29:31;8.7;;;4.3;;
76548;SDS011;65391;52.068;4.542;2023-06-24T12:31:56;8.7;;;4.3;;
76548;SDS011;65391;52.068;4.542;2023-06-24T12:34:21;6.7;;;4.5;;
76548;SDS011;65391;52.068;4.542;2023-06-24T12:36:46;6.7;;;4.5;;
76548;SDS011;65391;52.068;4.542;2023-06-24T12:39:11;6.7;;;4.5;;
76548;SDS011;65391;52.068;4.542;2023-06-24T12:41:36;6.7;;;4.5;;
76548;SDS011;65391;52.068;4.542;2023-06-24T12:44:01;5.2;;;3.9;;
76548;SDS011;65391;52.068;4.542;2023-06-24T12:46:26;5.2;;;3.9;;
76548;SDS011;65391;52.068;4.542;2023-06-24T12:48:51;5.2;;;3.9;;
76548;SDS011;65391;52.068;4.542;2023-06-24T12:51:16;5.2;;;3.9;;
76548;SDS011;65391;52.068;4.542;2023-06-24T12:53:41;5.2;;;3.9;;
76548;SDS011;65391;52.068;4.542;2023-06-24T12:56:06;6.4;;;4.4;;
76548;SDS011;65391;52.068;4.542;2023-06-24T12:58:31;6.4;;;4.4;;
76548;SDS011;65391;52.068;4.542;2023-06-24T13:00:56;6.4;;;4.4;;
76548;SDS011;65391;52.068;4.542;2023-06-24T13:03:21;6.4;;;4.4;;
76548;SDS011;65391;52.068;4.542;2023-06-24T13:05:46;6.8;;;4.6;;
76548;SDS011;65391;52.068;4.542;2023-06-24T13:08:11;6.8;;;4.6;;
76548;SDS011;65391;52.068;4.542;2023-06-24T13:10:36;6.8;;;4.6;;
76548;SDS011;65391;52.068;4.542;2023-06-24T13:13:01;6.8;;;4.6;;
76548;SDS011;65391;52.068;4.542;2023-06-24T13:15:26;10.1;;;5.9;;
76548;SDS011;65391;52.068;4.542;2023-06-24T13:17:51;10.1;;;5.9;;
76548;SDS011;65391;52.068;4.542;2023-06-24T13:20:16;10.1;;;5.9;;
76548;SDS011;65391;52.068;4.542;2023-06-24T13:22:41;10.1;;;5.9;;
76548;SDS011;65391;52.068;4.542;2023-06-24T13:25:07;9.7;;;6.3;;
76548;SDS011;65391;52.068;4.542;2023-06-24T13:27:31;9.7;;;6.3;;
76548;SDS011;65391;52.068;4.542;2023-06-24T13:29:56;9.7;;;6.3;;
76548;SDS011;65391;52.068;4.542;2023-06-24T13:32:21;9.7;;;6.3;;
76548;SDS011;65391;52.068;4.542;2023-06-24T13:34:46;8.8;;;6.1;;
76548;SDS011;65391;52.068;4.542;2023-06-24T13:37:11;8.8;;;6.1;;
76548;SDS011;65391;52.068;4.542;2023-06-24T13:39:36;8.8;;;6.1;;
76548;SDS011;65391;52.068;4.542;2023-06-24T13:42:01;8.8;;;6.1;;
76548;SDS011;65391;52.068;4.542;2023-06-24T13:44:26;14.1;;;7.4;;
76548;SDS011;65391;52.068;4.542;2023-06-24T13:46:51;14.1;;;7.4;;
76548;SDS011;65391;52.068;4.542;2023-06-24T13:49:16;14.1;;;7.4;;
76548;SDS011;65391;52.068;4.542;2023-06-24T13:51:41;14.1;;;7.4;;
76548;SDS011;65391;52.068;4.542;2023-06-24T13:54:06;8.7;;;6.6;;
76548;SDS011;65391;52.068;4.542;2023-06-24T13:56:31;8.7;;;6.6;;
76548;SDS011;65391;52.068;4.542;2023-06-24T13:58:56;8.7;;;6.6;;
76548;SDS011;65391;52.068;4.542;2023-06-24T14:01:21;8.7;;;6.6;;
76548;SDS011;65391;52.068;4.542;2023-06-24T14:03:47;8.7;;;6.6;;
76548;SDS011;65391;52.068;4.542;2023-06-24T14:06:13;11.2;;;8.1;;
76548;SDS011;65391;52.068;4.542;2023-06-24T14:08:36;11.2;;;8.1;;
76548;SDS011;65391;52.068;4.542;2023-06-24T14:11:02;11.2;;;8.1;;
76548;SDS011;65391;52.068;4.542;2023-06-24T14:13:26;11.2;;;8.1;;
76548;SDS011;65391;52.068;4.542;2023-06-24T14:15:51;12.1;;;8.1;;
76548;SDS011;65391;52.068;4.542;2023-06-24T14:18:16;12.1;;;8.1;;
76548;SDS011;65391;52.068;4.542;2023-06-24T14:20:41;12.1;;;8.1;;
76548;SDS011;65391;52.068;4.542;2023-06-24T14:23:06;12.1;;;8.1;;
76548;SDS011;65391;52.068;4.542;2023-06-24T14:25:31;10.9;;;7;;
76548;SDS011;65391;52.068;4.542;2023-06-24T14:27:56;10.9;;;7;;
76548;SDS011;65391;52.068;4.542;2023-06-24T14:30:21;10.9;;;7;;
76548;SDS011;65391;52.068;4.542;2023-06-24T14:32:46;10.9;;;7;;
76548;SDS011;65391;52.068;4.542;2023-06-24T14:35:11;10.7;;;8.5;;
76548;SDS011;65391;52.068;4.542;2023-06-24T14:37:36;10.7;;;8.5;;
76548;SDS011;65391;52.068;4.542;2023-06-24T14:40:01;10.7;;;8.5;;
76548;SDS011;65391;52.068;4.542;2023-06-24T14:42:26;10.7;;;8.5;;
76548;SDS011;65391;52.068;4.542;2023-06-24T14:44:51;11.1;;;9.1;;
76548;SDS011;65391;52.068;4.542;2023-06-24T14:47:16;11.1;;;9.1;;
76548;SDS011;65391;52.068;4.542;2023-06-24T14:49:41;11.1;;;9.1;;
76548;SDS011;65391;52.068;4.542;2023-06-24T14:52:06;11.1;;;9.1;;
76548;SDS011;65391;52.068;4.542;2023-06-24T14:54:31;12.6;;;9.4;;
76548;SDS011;65391;52.068;4.542;2023-06-24T14:56:56;12.6;;;9.4;;
76548;SDS011;65391;52.068;4.542;2023-06-24T14:59:21;12.6;;;9.4;;
76548;SDS011;65391;52.068;4.542;2023-06-24T15:01:46;12.6;;;9.4;;